Time;durP1;ratioP1;P1;durP2;ratioP2;P2;SDS_P1;SDS_P2;PMS_P1;PMS_P2;Temp;Humidity;BMP_temperature;BMP_pressure;BME280_temperature;BME280_humidity;BME280_pressure;Samples;Min_cycle;Max_cycle;Signal;HPM_P1;HPM_P2
2020/12/17 00:00:27;;;;;;;16.85;9.95;;;;;;;3.47;77.37;96108.66;5052885;28;20049;-48
2020/12/17 00:02:53;;;;;;;13.55;9.80;;;;;;;3.53;77.42;96122.00;5057358;28;20044;-47
2020/12/17 00:05:20;;;;;;;22.70;12.00;;;;;;;3.51;76.85;96120.44;5035237;28;20053;-52
2020/12/17 00:07:47;;;;;;;20.73;13.32;;;;;;;3.30;77.83;96112.88;5044779;28;20721;-48
2020/12/17 00:10:15;;;;;;;16.63;11.13;;;;;;;3.34;78.67;96124.59;5033222;28;20068;-48
2020/12/17 00:12:45;;;;;;;15.40;10.75;;;;;;;3.45;78.28;96121.56;5052834;28;20049;-51
2020/12/17 00:15:14;;;;;;;15.20;10.82;;;;;;;3.58;77.64;96124.66;5047359;28;20124;-55
2020/12/17 00:17:42;;;;;;;18.98;9.98;;;;;;;3.71;77.18;96129.34;5072078;28;20559;-51
2020/12/17 00:20:10;;;;;;;29.30;12.98;;;;;;;3.53;77.23;96120.13;5072081;28;20048;-48
2020/12/17 00:22:39;;;;;;;16.92;12.02;;;;;;;3.39;78.11;96125.34;5053145;28;20110;-48
2020/12/17 00:25:09;;;;;;;14.95;10.80;;;;;;;3.43;78.62;96130.94;5039966;28;20076;-54
2020/12/17 00:27:40;;;;;;;15.57;11.77;;;;;;;3.53;78.16;96119.34;5050717;28;20552;-48
2020/12/17 00:30:09;;;;;;;13.95;10.93;;;;;;;3.55;77.59;96109.16;5053447;28;20056;-47
2020/12/17 00:32:36;;;;;;;16.92;11.48;;;;;;;3.71;77.27;96113.28;5059022;28;20041;-50
2020/12/17 00:35:04;;;;;;;17.42;11.13;;;;;;;3.53;77.54;96105.97;5033527;28;20129;-51
2020/12/17 00:37:32;;;;;;;15.25;11.10;;;;;;;3.50;77.93;96118.81;5045538;28;20060;-52
2020/12/17 00:39:59;;;;;;;14.85;10.32;;;;;;;3.67;77.01;96113.06;5031804;28;20107;-51
2020/12/17 00:42:26;;;;;;;16.17;10.88;;;;;;;3.80;76.82;96108.88;5069180;28;20076;-52
2020/12/17 00:44:52;;;;;;;15.15;11.27;;;;;;;3.88;76.28;96099.44;5065404;28;20522;-47
2020/12/17 00:47:28;;;;;;;14.82;11.18;;;;;;;3.96;76.41;96102.28;5066509;28;20155;-54
2020/12/17 00:49:55;;;;;;;16.02;10.40;;;;;;;3.84;76.48;96101.09;5072923;28;20117;-50
2020/12/17 00:52:22;;;;;;;14.32;10.65;;;;;;;3.90;76.39;96107.97;5053541;28;20049;-52
2020/12/17 00:54:49;;;;;;;17.10;10.73;;;;;;;3.93;76.12;96121.59;5032698;28;20041;-49
2020/12/17 00:57:16;;;;;;;16.58;11.27;;;;;;;3.96;76.00;96114.84;5048848;28;20055;-50
2020/12/17 00:59:43;;;;;;;16.92;10.88;;;;;;;3.89;76.12;96109.84;5052102;28;20463;-48
2020/12/17 01:02:10;;;;;;;17.65;11.57;;;;;;;3.81;76.21;96099.78;5049474;28;20053;-47
2020/12/17 01:04:36;;;;;;;16.27;11.23;;;;;;;3.85;76.14;96105.38;5053743;28;20036;-49
2020/12/17 01:07:03;;;;;;;16.30;11.15;;;;;;;3.82;76.08;96103.25;5065686;28;20079;-47
2020/12/17 01:09:30;;;;;;;16.15;10.98;;;;;;;3.90;76.08;96113.31;5034263;28;20136;-49
2020/12/17 01:11:56;;;;;;;15.27;10.65;;;;;;;3.93;75.98;96115.44;5052652;28;20059;-49
2020/12/17 01:14:23;;;;;;;14.05;10.27;;;;;;;3.86;75.88;96094.34;5051507;28;20080;-51
2020/12/17 01:16:50;;;;;;;17.85;10.73;;;;;;;3.80;76.26;96110.75;5042023;28;20136;-53
2020/12/17 01:19:17;;;;;;;16.60;11.43;;;;;;;3.82;76.41;96112.06;5046617;28;20052;-48
2020/12/17 01:21:43;;;;;;;14.48;9.93;;;;;;;3.69;76.70;96110.06;5052162;28;20051;-49
2020/12/17 01:24:10;;;;;;;15.93;11.15;;;;;;;3.79;76.60;96119.88;5050454;28;20049;-53
2020/12/17 01:26:36;;;;;;;18.33;10.52;;;;;;;3.81;76.21;96107.81;5046029;28;20042;-48
2020/12/17 01:29:03;;;;;;;13.35;9.60;;;;;;;3.76;76.10;96113.22;5059078;28;20111;-54
2020/12/17 01:31:29;;;;;;;13.57;9.65;;;;;;;3.67;76.27;96122.94;5071939;28;20048;-50
2020/12/17 01:33:55;;;;;;;11.23;8.55;;;;;;;3.49;76.42;96106.53;5037030;28;20092;-48
2020/12/17 01:36:22;;;;;;;14.27;10.48;;;;;;;3.73;76.27;96130.63;5039843;28;20045;-51
2020/12/17 01:38:48;;;;;;;15.55;9.80;;;;;;;3.71;75.97;96118.63;5047146;28;20054;-50
2020/12/17 01:41:15;;;;;;;13.23;9.35;;;;;;;3.61;76.34;96135.59;5038816;28;20071;-56
2020/12/17 01:43:45;;;;;;;12.77;8.35;;;;;;;3.49;76.38;96140.50;5051151;28;20067;-50
2020/12/17 01:46:14;;;;;;;13.60;9.15;;;;;;;3.45;76.53;96134.91;5043735;28;20049;-46
2020/12/17 01:48:42;;;;;;;11.88;8.20;;;;;;;3.24;77.03;96138.84;5051687;28;20060;-51
2020/12/17 01:51:10;;;;;;;11.43;8.60;;;;;;;3.33;77.11;96134.50;5054880;28;20048;-52
2020/12/17 01:53:41;;;;;;;12.95;8.93;;;;;;;3.42;76.91;96140.84;5071558;28;20587;-47
2020/12/17 01:56:28;;;;;;;14.57;9.07;;;;;;;3.54;76.48;96139.66;5044078;28;20057;-51
2020/12/17 01:59:00;;;;;;;14.15;8.63;;;;;;;3.62;76.01;96134.50;5067176;28;20114;-54
2020/12/17 02:01:30;;;;;;;11.02;8.63;;;;;;;3.63;76.07;96137.97;5043063;28;20054;-50
2020/12/17 02:03:58;;;;;;;13.77;8.82;;;;;;;3.38;76.52;96105.03;5031546;28;20510;-49
2020/12/17 02:06:25;;;;;;;12.20;9.15;;;;;;;3.36;76.81;96109.88;5038930;28;20052;-53
2020/12/17 02:08:52;;;;;;;13.95;9.55;;;;;;;3.41;76.63;96109.81;5045937;28;20514;-51
2020/12/17 02:11:20;;;;;;;12.43;9.35;;;;;;;3.34;76.74;96128.06;5038217;28;20077;-48
2020/12/17 02:13:47;;;;;;;11.93;8.75;;;;;;;3.41;76.84;96130.41;5050166;28;20510;-51
2020/12/17 02:16:15;;;;;;;13.65;9.23;;;;;;;3.48;76.68;96125.53;5045788;28;20049;-50
2020/12/17 02:18:43;;;;;;;16.27;8.82;;;;;;;3.51;76.60;96135.69;5033659;28;20072;-50
2020/12/17 02:21:09;;;;;;;15.20;9.80;;;;;;;3.38;76.88;96141.66;5051626;28;20128;-49
2020/12/17 02:23:39;;;;;;;19.52;10.45;;;;;;;3.50;76.54;96139.41;5048258;28;20514;-55
2020/12/17 02:26:06;;;;;;;13.35;9.88;;;;;;;3.41;76.86;96128.53;5049514;28;20052;-46
2020/12/17 02:28:33;;;;;;;12.88;9.07;;;;;;;3.31;77.23;96117.91;5050534;28;20067;-51
2020/12/17 02:30:59;;;;;;;13.10;9.32;;;;;;;3.34;76.70;96113.88;5070618;28;20052;-51
2020/12/17 02:33:26;;;;;;;13.75;9.60;;;;;;;3.43;76.90;96122.91;5034741;28;20136;-55
2020/12/17 02:35:52;;;;;;;14.40;10.05;;;;;;;3.45;76.41;96110.06;5049802;28;20564;-48
2020/12/17 02:38:19;;;;;;;13.10;9.93;;;;;;;3.44;76.52;96125.28;5039353;28;20060;-46
2020/12/17 02:40:46;;;;;;;15.40;9.60;;;;;;;3.16;76.85;96107.38;5052874;28;20589;-52
2020/12/17 02:43:13;;;;;;;11.13;8.63;;;;;;;3.39;76.41;96130.69;5055099;28;20057;-48
2020/12/17 02:45:46;;;;;;;11.43;8.65;;;;;;;3.44;76.21;96127.16;5050455;28;20041;-49
2020/12/17 02:48:14;;;;;;;10.95;8.05;;;;;;;3.54;75.91;96145.00;5035468;28;20136;-54
2020/12/17 02:50:42;;;;;;;13.20;9.05;;;;;;;3.36;76.27;96143.84;5066639;28;20136;-47
2020/12/17 02:53:09;;;;;;;12.40;9.10;;;;;;;3.32;76.51;96156.19;5053848;28;20107;-48
2020/12/17 02:55:37;;;;;;;12.57;8.55;;;;;;;3.41;76.18;96144.59;5053728;28;20053;-46
2020/12/17 02:58:07;;;;;;;12.57;8.55;;;;;;;3.39;76.07;96145.94;5034972;28;20132;-51
2020/12/17 03:00:33;;;;;;;11.82;8.70;;;;;;;3.37;76.48;96172.97;5050066;28;20076;-49
2020/12/17 03:03:00;;;;;;;13.30;9.50;;;;;;;3.31;76.35;96144.66;5052039;28;20052;-48
2020/12/17 03:05:27;;;;;;;13.57;8.48;;;;;;;3.43;76.45;96176.41;5060412;28;20072;-54
2020/12/17 03:07:54;;;;;;;14.13;9.13;;;;;;;3.48;76.01;96153.09;5059839;28;20052;-47
2020/12/17 03:10:21;;;;;;;13.57;8.90;;;;;;;3.39;76.07;96140.59;5049826;28;20056;-52
2020/12/17 03:12:48;;;;;;;11.82;9.15;;;;;;;3.56;75.88;96148.19;5053854;28;20481;-48
2020/12/17 03:15:15;;;;;;;14.02;8.98;;;;;;;3.38;75.84;96130.97;5049424;28;20554;-50
2020/12/17 03:17:42;;;;;;;14.05;9.45;;;;;;;3.56;76.07;96143.66;5033470;28;20041;-50
2020/12/17 03:20:11;;;;;;;11.57;9.23;;;;;;;3.62;75.82;96136.38;5047017;28;20053;-47
2020/12/17 03:22:38;;;;;;;12.57;8.82;;;;;;;3.66;76.07;96142.75;5054659;28;20123;-52
2020/12/17 03:25:08;;;;;;;11.68;8.00;;;;;;;3.65;75.95;96143.84;5058542;28;20536;-51
2020/12/17 03:27:35;;;;;;;13.77;9.27;;;;;;;3.55;76.11;96138.59;5033896;28;20494;-48
2020/12/17 03:30:04;;;;;;;13.55;9.57;;;;;;;3.46;76.87;96128.47;5027437;28;20083;-49
2020/12/17 03:32:32;;;;;;;14.95;9.50;;;;;;;3.46;76.75;96136.50;5054547;28;20049;-55
2020/12/17 03:34:59;;;;;;;12.98;9.45;;;;;;;3.46;76.86;96144.53;5046674;28;20140;-47
2020/12/17 03:37:26;;;;;;;13.55;9.27;;;;;;;3.55;76.44;96141.25;5034050;28;20072;-50
2020/12/17 03:39:52;;;;;;;13.00;9.05;;;;;;;3.63;76.20;96137.97;5043365;28;20509;-46
2020/12/17 03:42:19;;;;;;;12.88;8.93;;;;;;;3.62;76.09;96147.06;5053801;28;20052;-50
2020/12/17 03:44:46;;;;;;;12.75;9.00;;;;;;;3.49;76.27;96153.88;5061400;28;20079;-48
2020/12/17 03:47:13;;;;;;;13.57;9.02;;;;;;;3.45;76.47;96126.91;5033421;28;20049;-46
2020/12/17 03:49:40;;;;;;;11.80;9.25;;;;;;;3.35;76.52;96121.66;5069697;28;20056;-51
2020/12/17 03:52:06;;;;;;;11.95;9.02;;;;;;;3.53;76.73;96143.41;5074366;28;20130;-50
2020/12/17 03:54:33;;;;;;;12.45;8.88;;;;;;;3.67;76.25;96147.00;5068329;28;20120;-46
2020/12/17 03:56:59;;;;;;;12.48;9.02;;;;;;;3.72;75.88;96142.41;5033164;28;20049;-50
2020/12/17 03:59:26;;;;;;;13.32;9.45;;;;;;;3.78;75.44;96134.34;5049263;28;20051;-50
2020/12/17 04:01:52;;;;;;;11.55;8.50;;;;;;;3.58;75.82;96119.31;5053644;28;20075;-51
2020/12/17 04:04:19;;;;;;;11.85;8.95;;;;;;;3.54;76.47;96145.00;5054666;28;20049;-53
2020/12/17 04:06:45;;;;;;;11.73;8.75;;;;;;;3.46;76.66;96157.13;5033278;28;20131;-52
2020/12/17 04:09:13;;;;;;;12.20;8.65;;;;;;;3.58;76.34;96159.44;5062406;28;20052;-50
2020/12/17 04:11:40;;;;;;;15.52;8.75;;;;;;;3.36;76.45;96152.66;5073924;28;20045;-53
2020/12/17 04:14:06;;;;;;;14.95;8.73;;;;;;;3.33;76.71;96155.88;5057157;28;20067;-47
2020/12/17 04:16:51;;;;;;;13.18;9.23;;;;;;;3.17;77.27;96157.09;5051223;28;20052;-49
2020/12/17 04:19:18;;;;;;;12.65;9.57;;;;;;;3.18;77.53;96169.38;5068486;28;20056;-55
2020/12/17 04:21:44;;;;;;;12.20;9.00;;;;;;;3.26;77.27;96166.09;5060508;28;20586;-51
2020/12/17 04:24:11;;;;;;;12.48;8.65;;;;;;;3.35;76.74;96168.97;5053115;28;20107;-54
2020/12/17 04:26:37;;;;;;;15.15;9.27;;;;;;;3.39;76.61;96172.69;5057332;28;20117;-53
2020/12/17 04:29:04;;;;;;;11.88;8.77;;;;;;;3.47;76.68;96180.91;5072925;28;20048;-52
2020/12/17 04:31:31;;;;;;;11.73;8.55;;;;;;;3.63;76.30;96186.13;5062704;28;20498;-54
2020/12/17 04:33:57;;;;;;;13.50;9.40;;;;;;;3.51;76.42;96200.69;5050649;28;20094;-46
2020/12/17 04:36:25;;;;;;;14.57;9.38;;;;;;;3.47;76.48;96196.16;5053262;23;20426;-47
2020/12/17 04:38:51;;;;;;;11.90;8.32;;;;;;;3.35;76.91;96204.56;5014581;28;20100;-47
2020/12/17 04:41:19;;;;;;;12.15;8.40;;;;;;;3.16;77.80;96193.72;5019322;28;20057;-47
2020/12/17 04:43:47;;;;;;;13.40;8.50;;;;;;;3.32;77.02;96189.06;5032450;28;20057;-46
2020/12/17 04:46:18;;;;;;;11.50;8.75;;;;;;;3.32;77.02;96197.09;5027865;28;20093;-46
2020/12/17 04:48:51;;;;;;;14.45;8.77;;;;;;;3.35;76.27;96198.38;5032381;28;20403;-46
2020/12/17 04:51:20;;;;;;;11.90;8.20;;;;;;;3.24;76.87;96197.66;5017647;28;20105;-47
2020/12/17 04:53:49;;;;;;;11.13;8.52;;;;;;;3.36;76.75;96192.78;4992816;28;20065;-47
2020/12/17 04:56:18;;;;;;;11.90;8.77;;;;;;;3.48;76.43;96195.88;4997712;28;20049;-47
2020/12/17 04:58:49;;;;;;;11.63;8.90;;;;;;;3.65;75.83;96192.00;5012525;28;20112;-47
2020/12/17 05:01:18;;;;;;;11.48;8.40;;;;;;;3.64;75.45;96185.84;5011251;28;20411;-47
2020/12/17 05:03:48;;;;;;;11.45;8.50;;;;;;;3.65;75.70;96173.28;5011008;28;20084;-46
2020/12/17 05:06:21;;;;;;;12.77;9.65;;;;;;;3.60;75.70;96176.78;5010394;28;20054;-47
2020/12/17 05:08:50;;;;;;;10.35;8.10;;;;;;;3.34;76.28;96170.06;4995161;28;20133;-51
2020/12/17 05:11:17;;;;;;;11.55;8.52;;;;;;;3.42;76.25;96188.19;5003765;28;20089;-50
2020/12/17 05:13:44;;;;;;;13.98;8.45;;;;;;;3.28;76.18;96174.63;5031875;28;20053;-47
2020/12/17 05:16:10;;;;;;;13.02;8.65;;;;;;;3.24;76.55;96186.97;5024932;28;20076;-47
2020/12/17 05:18:37;;;;;;;10.95;7.95;;;;;;;3.16;77.22;96193.72;4993182;28;20082;-47
2020/12/17 05:21:04;;;;;;;12.07;8.52;;;;;;;3.16;76.84;96180.34;5030984;28;20053;-49
2020/12/17 05:23:31;;;;;;;11.68;8.77;;;;;;;3.20;76.94;96201.97;5031445;28;20049;-48
2020/12/17 05:26:00;;;;;;;11.52;8.60;;;;;;;3.34;76.42;96204.81;5019319;28;20078;-48
2020/12/17 05:28:27;;;;;;;14.13;8.93;;;;;;;3.35;76.37;96217.94;4992255;28;20077;-46
2020/12/17 05:30:53;;;;;;;20.27;9.23;;;;;;;3.30;76.39;96222.50;5009112;28;20050;-47
2020/12/17 05:33:21;;;;;;;12.90;8.93;;;;;;;3.30;76.55;96225.97;5011806;28;20081;-52
2020/12/17 05:35:48;;;;;;;13.32;8.38;;;;;;;3.25;76.74;96220.66;5023817;28;20057;-47
2020/12/17 05:38:21;;;;;;;12.52;8.93;;;;;;;3.14;77.18;96229.81;5006964;28;20201;-47
2020/12/17 05:40:48;;;;;;;;;;;;;;;3.35;76.54;96231.31;5008976;28;20456;-47
2020/12/17 05:43:22;;;;;;;11.18;8.20;;;;;;;3.35;76.49;96227.81;5011597;28;20015;-49
2020/12/17 05:45:49;;;;;;;11.82;8.15;;;;;;;3.35;76.25;96233.97;5000182;28;20160;-47
2020/12/17 05:48:20;;;;;;;11.35;8.43;;;;;;;3.23;76.67;96241.53;4991932;28;20050;-49
2020/12/17 05:50:55;;;;;;;11.77;7.80;;;;;;;3.23;76.67;96246.88;5007630;28;20107;-47
2020/12/17 05:53:30;;;;;;;11.98;8.15;;;;;;;3.19;76.74;96245.84;5011236;28;20140;-48
2020/12/17 05:56:05;;;;;;;10.07;7.60;;;;;;;3.06;77.38;96241.91;5008473;28;20407;-48
2020/12/17 05:58:41;;;;;;;10.55;8.38;;;;;;;2.99;77.12;96247.56;5011507;28;20050;-54
2020/12/17 06:01:12;;;;;;;12.20;9.02;;;;;;;2.70;78.50;96233.28;5010882;28;20071;-54
2020/12/17 06:03:43;;;;;;;11.60;8.50;;;;;;;2.95;77.74;96237.69;5001297;28;20069;-50
2020/12/17 06:06:10;;;;;;;11.07;7.82;;;;;;;3.13;76.80;96237.06;5009979;28;20565;-53
2020/12/17 06:08:41;;;;;;;11.63;8.88;;;;;;;3.12;76.60;96243.47;4995978;28;20129;-51
2020/12/17 06:11:13;;;;;;;10.43;8.05;;;;;;;3.04;76.90;96241.38;5009577;28;20439;-53
2020/12/17 06:13:42;;;;;;;10.95;8.10;;;;;;;2.99;76.76;96252.09;5010367;28;20133;-52
2020/12/17 06:16:10;;;;;;;10.25;7.63;;;;;;;2.89;76.91;96247.59;4998321;28;20050;-53
2020/12/17 06:18:45;;;;;;;10.88;7.68;;;;;;;2.92;77.19;96256.94;4991573;28;20054;-46
2020/12/17 06:21:14;;;;;;;9.35;6.82;;;;;;;2.98;76.58;96255.84;5009957;28;20053;-46
2020/12/17 06:23:40;;;;;;;10.27;7.18;;;;;;;3.08;76.29;96255.78;5008340;28;20084;-46
2020/12/17 06:26:09;;;;;;;9.77;7.03;;;;;;;3.09;75.89;96261.94;5026787;28;20768;-46
2020/12/17 06:28:47;;;;;;;10.70;8.27;;;;;;;3.03;76.35;96263.84;5029125;28;20045;-50
2020/12/17 06:31:17;;;;;;;10.35;7.32;;;;;;;2.97;76.23;96263.06;5010704;28;20054;-49
2020/12/17 06:33:44;;;;;;;10.60;7.75;;;;;;;2.97;76.20;96260.38;5002732;28;20133;-51
2020/12/17 06:36:19;;;;;;;10.00;7.53;;;;;;;3.01;75.97;96266.78;5010276;28;20136;-46
2020/12/17 06:38:46;;;;;;;10.20;7.68;;;;;;;3.00;75.74;96243.00;5009219;28;20407;-51
2020/12/17 06:41:22;;;;;;;10.05;7.55;;;;;;;3.19;75.52;96264.56;5010857;28;20138;-45
2020/12/17 06:43:49;;;;;;;9.98;7.93;;;;;;;3.13;75.53;96263.00;5009075;28;20157;-47
2020/12/17 06:46:29;;;;;;;11.70;8.13;;;;;;;3.12;75.92;96272.06;5008755;28;20576;-45
2020/12/17 06:48:55;;;;;;;11.18;7.78;;;;;;;2.94;76.21;96271.63;5009928;28;20518;-45
2020/12/17 06:51:33;;;;;;;10.25;7.40;;;;;;;2.97;76.48;96281.78;5010910;28;20057;-49
2020/12/17 06:54:02;;;;;;;11.45;7.57;;;;;;;2.94;76.30;96276.97;5009700;28;20080;-51
2020/12/17 06:56:28;;;;;;;12.57;7.30;;;;;;;2.94;76.11;96282.31;4990497;28;20051;-49
2020/12/17 06:59:20;;;;;;;9.40;7.30;;;;;;;3.01;75.75;96298.06;5001798;28;20133;-50
2020/12/17 07:01:47;;;;;;;12.45;7.63;;;;;;;2.86;75.90;96290.94;4990496;28;20053;-48
2020/12/17 07:04:36;;;;;;;13.27;8.43;;;;;;;3.04;75.80;96300.19;4991812;28;20054;-49
2020/12/17 07:07:14;;;;;;;11.73;8.20;;;;;;;3.01;75.65;96301.53;4991731;28;20060;-50
2020/12/17 07:09:40;;;;;;;15.07;9.77;;;;;;;3.14;75.14;96302.81;5009830;28;20136;-50
2020/12/17 07:12:10;;;;;;;17.08;10.63;;;;;;;3.07;74.82;96304.19;5011188;28;20447;-49
2020/12/17 07:14:36;;;;;;;14.18;9.93;;;;;;;2.83;75.62;96304.00;5027284;28;20129;-48
2020/12/17 07:17:06;;;;;;;13.43;9.65;;;;;;;2.72;75.83;96305.94;5010418;28;20388;-47
2020/12/17 07:19:44;;;;;;;11.38;7.80;;;;;;;2.43;77.36;96325.22;5009512;28;20080;-49
2020/12/17 07:22:14;;;;;;;12.98;8.70;;;;;;;2.61;76.89;96331.09;5010672;28;20414;-49
2020/12/17 07:24:44;;;;;;;11.27;7.85;;;;;;;2.63;76.71;96328.94;5029233;28;20521;-50
2020/12/17 07:27:12;;;;;;;10.13;7.40;;;;;;;2.61;76.79;96336.44;5031540;28;20057;-50
2020/12/17 07:30:00;;;;;;;10.68;8.10;;;;;;;2.52;77.33;96331.63;5012478;28;20081;-52
2020/12/17 07:32:37;;;;;;;10.13;7.45;;;;;;;2.73;76.50;96334.25;5013360;28;20096;-48
2020/12/17 07:35:20;;;;;;;12.18;7.88;;;;;;;2.76;76.21;96329.19;5106512;27;20346;-57
2020/12/17 07:37:54;;;;;;;11.52;7.90;;;;;;;2.84;75.64;96329.69;5104410;28;20438;-50
2020/12/17 07:40:33;;;;;;;10.90;8.18;;;;;;;2.72;76.59;96338.78;5088747;28;20358;-48
2020/12/17 07:43:14;;;;;;;12.85;8.25;;;;;;;2.68;76.74;96331.59;5088616;28;20079;-47
2020/12/17 07:45:51;;;;;;;12.27;8.68;;;;;;;2.72;76.90;96344.13;5088366;28;20040;-52
2020/12/17 07:48:46;;;;;;;13.57;8.77;;;;;;;2.76;77.06;96339.03;5093986;28;20055;-52
2020/12/17 07:51:14;;;;;;;11.25;8.02;;;;;;;2.80;76.40;96340.13;5101699;28;20064;-54
2020/12/17 07:53:41;;;;;;;15.60;8.63;;;;;;;2.83;76.21;96338.75;5099326;28;20052;-53
2020/12/17 07:56:08;;;;;;;14.32;9.73;;;;;;;3.01;75.73;96330.94;5105827;28;20181;-49
2020/12/17 07:58:35;;;;;;;12.55;8.13;;;;;;;3.08;76.09;96337.84;5107807;28;20048;-52
2020/12/17 08:01:03;;;;;;;11.10;8.32;;;;;;;3.19;75.21;96340.22;5103233;28;20048;-50
2020/12/17 08:03:39;;;;;;;9.63;6.97;;;;;;;3.28;74.60;96346.59;5104937;28;20046;-46
2020/12/17 08:06:08;;;;;;;11.18;7.75;;;;;;;3.38;74.26;96339.56;5106248;28;20105;-53
2020/12/17 08:08:34;;;;;;;9.63;7.25;;;;;;;3.30;73.83;96343.63;5100466;28;20131;-46
2020/12/17 08:11:02;;;;;;;10.50;7.43;;;;;;;3.42;74.05;96343.31;5099633;28;20041;-45
2020/12/17 08:13:28;;;;;;;13.25;9.50;;;;;;;3.42;73.90;96346.78;5106934;28;20062;-55
2020/12/17 08:15:59;;;;;;;9.32;7.28;;;;;;;3.44;73.62;96354.53;5102038;28;20044;-55
2020/12/17 08:18:32;;;;;;;9.77;7.32;;;;;;;3.37;73.93;96354.84;5088577;28;20054;-52
2020/12/17 08:21:07;;;;;;;8.95;6.75;;;;;;;3.28;73.31;96357.31;5090489;28;20644;-55
2020/12/17 08:23:38;;;;;;;9.55;6.88;;;;;;;3.22;73.65;96354.94;5103736;28;20143;-54
2020/12/17 08:26:16;;;;;;;13.35;8.70;;;;;;;3.29;73.77;96360.78;5105861;28;20048;-56
2020/12/17 08:28:43;;;;;;;9.68;6.90;;;;;;;3.19;73.57;96361.63;5107226;28;20052;-51
2020/12/17 08:31:11;;;;;;;11.85;7.75;;;;;;;3.06;74.14;96367.56;5106967;28;20048;-50
2020/12/17 08:33:52;;;;;;;8.88;7.13;;;;;;;3.30;72.83;96361.56;5108422;28;20048;-50
2020/12/17 08:36:23;;;;;;;8.80;6.82;;;;;;;2.86;73.77;96355.06;5106653;28;20107;-50
2020/12/17 08:39:06;;;;;;;9.25;6.90;;;;;;;3.16;73.14;96367.50;5090286;28;20066;-46
2020/12/17 08:41:47;;;;;;;10.50;6.78;;;;;;;3.12;73.04;96371.81;5090966;28;20056;-52
2020/12/17 08:44:16;;;;;;;8.77;5.97;;;;;;;3.07;72.96;96382.50;5106406;28;20560;-46
2020/12/17 08:46:56;;;;;;;9.27;6.65;;;;;;;3.20;72.86;96378.47;5081736;28;20127;-48
2020/12/17 08:49:24;;;;;;;10.13;7.25;;;;;;;3.38;72.01;96377.84;5093317;28;20047;-49
2020/12/17 08:51:51;;;;;;;9.73;7.05;;;;;;;3.36;71.87;96389.88;5089823;28;20049;-51
2020/12/17 08:54:25;;;;;;;10.23;7.00;;;;;;;3.34;72.50;96392.03;5086022;28;20036;-50
2020/12/17 08:56:56;;;;;;;9.13;6.50;;;;;;;3.34;72.24;96368.75;5078385;28;20048;-46
2020/12/17 08:59:22;;;;;;;10.40;6.55;;;;;;;3.65;71.28;96387.34;5093605;28;20052;-54
2020/12/17 09:01:50;;;;;;;11.30;7.32;;;;;;;3.57;71.53;96396.72;5083939;28;20124;-47
2020/12/17 09:04:19;;;;;;;11.93;7.28;;;;;;;3.57;72.23;96404.75;5081706;28;20451;-48
2020/12/17 09:06:54;;;;;;;13.25;7.70;;;;;;;3.41;72.37;96393.34;5093305;28;20056;-51
2020/12/17 09:09:25;;;;;;;14.05;7.55;;;;;;;3.57;72.35;96409.31;5078386;28;20074;-44
2020/12/17 09:12:03;;;;;;;10.15;7.43;;;;;;;3.53;72.40;96405.59;5073657;28;20048;-49
2020/12/17 09:14:37;;;;;;;11.77;7.13;;;;;;;3.55;72.31;96404.25;5073401;28;20579;-45
2020/12/17 09:17:13;;;;;;;15.30;7.43;;;;;;;3.55;71.92;96408.78;5072930;28;20091;-47
2020/12/17 09:19:40;;;;;;;11.23;7.70;;;;;;;3.32;73.09;96408.38;5073866;28;20083;-46
2020/12/17 09:22:07;;;;;;;14.30;7.80;;;;;;;3.39;73.42;96421.44;5082668;28;20130;-47
2020/12/17 09:24:39;;;;;;;9.02;7.65;;;;;;;3.17;74.99;96435.16;5077527;28;20045;-47
2020/12/17 09:27:18;;;;;;;8.77;7.30;;;;;;;2.72;76.62;96426.16;5073044;28;20139;-51
2020/12/17 09:29:58;;;;;;;12.90;7.97;;;;;;;2.85;76.89;96420.25;5072972;28;20135;-48
2020/12/17 09:32:24;;;;;;;10.48;7.35;;;;;;;3.01;76.07;96416.47;5073054;28;20047;-50
2020/12/17 09:35:13;;;;;;;11.60;8.00;;;;;;;3.55;74.44;96414.16;5074840;28;20440;-48
2020/12/17 09:37:41;;;;;;;9.60;7.47;;;;;;;3.55;74.12;96419.50;5087412;28;20072;-47
2020/12/17 09:40:11;;;;;;;11.68;8.20;;;;;;;3.42;74.75;96416.34;5072902;28;20055;-46
2020/12/17 09:42:38;;;;;;;10.02;7.93;;;;;;;3.47;74.31;96410.94;5086697;28;20072;-45
2020/12/17 09:45:19;;;;;;;10.80;7.93;;;;;;;3.64;73.92;96420.50;5073112;28;20151;-48
2020/12/17 09:47:45;;;;;;;10.60;7.95;;;;;;;3.63;73.54;96416.22;5072872;28;20114;-48
2020/12/17 09:50:17;;;;;;;11.88;8.40;;;;;;;3.22;75.33;96411.09;5080386;28;20059;-45
2020/12/17 09:52:44;;;;;;;10.27;7.95;;;;;;;3.07;75.84;96408.44;5084399;28;20127;-50
2020/12/17 09:55:14;;;;;;;10.65;8.38;;;;;;;3.36;75.17;96428.13;5086792;28;20121;-51
2020/12/17 09:57:47;;;;;;;9.82;7.63;;;;;;;3.36;75.28;96417.44;5089852;28;20048;-45
2020/12/17 10:00:15;;;;;;;11.15;7.80;;;;;;;3.64;74.71;96418.66;5092171;28;20416;-46
2020/12/17 10:02:47;;;;;;;14.18;7.80;;;;;;;3.82;73.23;96416.41;5093265;28;20113;-52
2020/12/17 10:05:34;;;;;;;13.57;8.32;;;;;;;3.64;73.99;96391.06;5070454;28;20067;-47
2020/12/17 10:08:03;;;;;;;9.90;7.63;;;;;;;3.80;73.83;96400.59;5073458;28;20051;-48
2020/12/17 10:10:29;;;;;;;10.38;8.13;;;;;;;4.15;72.79;96417.53;5073307;28;20053;-47
2020/12/17 10:12:59;;;;;;;12.45;7.78;;;;;;;4.34;71.77;96410.41;5071166;28;20196;-54
2020/12/17 10:15:26;;;;;;;10.35;8.32;;;;;;;4.17;72.11;96407.34;5071645;28;20405;-54
2020/12/17 10:17:54;;;;;;;10.27;7.95;;;;;;;4.48;70.79;96413.25;5071659;28;20051;-51
2020/12/17 10:20:22;;;;;;;12.30;7.60;;;;;;;4.57;70.93;96413.44;5071984;28;20445;-53
2020/12/17 10:22:48;;;;;;;10.55;7.97;;;;;;;4.44;71.33;96415.69;5071792;28;20052;-46
2020/12/17 10:25:17;;;;;;;8.98;7.30;;;;;;;4.63;71.18;96425.72;5071638;28;20504;-53
2020/12/17 10:27:46;;;;;;;11.43;7.55;;;;;;;4.67;71.00;96421.38;5071720;28;20049;-52
2020/12/17 10:30:13;;;;;;;12.85;8.02;;;;;;;4.88;70.14;96419.31;5076571;28;20055;-52
2020/12/17 10:32:41;;;;;;;11.85;7.70;;;;;;;5.17;68.68;96416.59;5091239;28;20097;-55
2020/12/17 10:35:08;;;;;;;13.25;7.60;;;;;;;5.14;68.67;96417.19;5083806;28;20603;-52
2020/12/17 10:37:37;;;;;;;12.82;7.68;;;;;;;5.28;68.46;96426.13;5090042;28;20394;-54
2020/12/17 10:40:03;;;;;;;11.65;8.02;;;;;;;5.31;68.69;96406.78;5091771;28;20124;-54
2020/12/17 10:42:30;;;;;;;9.55;7.05;;;;;;;5.52;68.29;96427.97;5091805;28;20092;-52
2020/12/17 10:44:56;;;;;;;13.07;7.75;;;;;;;5.73;67.67;96413.22;5090212;28;20363;-53
2020/12/17 10:47:23;;;;;;;11.63;8.43;;;;;;;5.55;69.07;96425.53;5090634;28;20067;-53
2020/12/17 10:49:49;;;;;;;14.60;7.63;;;;;;;5.66;68.47;96423.53;5087105;28;20052;-52
2020/12/17 10:52:16;;;;;;;8.82;7.28;;;;;;;5.84;68.30;96414.66;5084156;28;20128;-54
2020/12/17 10:54:42;;;;;;;14.20;7.50;;;;;;;6.03;67.15;96427.34;5088541;28;20141;-54
2020/12/17 10:57:09;;;;;;;11.93;7.63;;;;;;;6.22;65.59;96424.66;5084873;28;20135;-51
2020/12/17 10:59:35;;;;;;;15.70;7.90;;;;;;;6.06;66.60;96421.41;5090424;28;20083;-53
2020/12/17 11:02:02;;;;;;;10.02;7.95;;;;;;;6.16;67.16;96412.38;5075867;28;20052;-52
2020/12/17 11:04:28;;;;;;;12.07;7.47;;;;;;;6.36;66.86;96412.06;5081423;28;20062;-54
2020/12/17 11:06:56;;;;;;;12.40;7.00;;;;;;;6.55;65.94;96414.72;5083721;28;20151;-50
2020/12/17 11:09:27;;;;;;;16.80;7.32;;;;;;;6.64;65.15;96390.66;5070936;28;20082;-52
2020/12/17 11:11:54;;;;;;;10.57;7.20;;;;;;;6.83;63.81;96406.75;5083972;28;20052;-56
2020/12/17 11:14:22;;;;;;;10.27;6.93;;;;;;;6.34;65.08;96395.44;5088217;28;20076;-47
2020/12/17 11:16:49;;;;;;;12.38;7.03;;;;;;;6.94;65.63;96410.81;5079220;28;20512;-48
2020/12/17 11:19:16;;;;;;;10.23;6.88;;;;;;;7.62;61.62;96412.72;5071226;28;20466;-50
2020/12/17 11:21:43;;;;;;;13.30;6.85;;;;;;;8.15;59.95;96411.31;5083179;28;20060;-51
2020/12/17 11:24:11;;;;;;;10.88;7.25;;;;;;;8.97;57.67;96409.34;5091254;28;20048;-48
2020/12/17 11:26:42;;;;;;;11.85;8.00;;;;;;;9.31;56.52;96411.41;5083416;28;20071;-48
2020/12/17 11:29:08;;;;;;;13.80;8.43;;;;;;;9.74;54.94;96422.34;5091280;28;20501;-52
2020/12/17 11:31:35;;;;;;;12.85;7.00;;;;;;;9.27;56.12;96415.88;5089760;28;20047;-52
2020/12/17 11:34:01;;;;;;;10.57;7.07;;;;;;;9.62;54.86;96405.97;5090730;28;20048;-48
2020/12/17 11:36:28;;;;;;;12.40;7.32;;;;;;;10.06;54.65;96410.31;5073897;28;20484;-49
2020/12/17 11:38:54;;;;;;;11.18;7.82;;;;;;;10.68;52.04;96405.72;5071132;28;20052;-50
2020/12/17 11:41:21;;;;;;;14.25;8.32;;;;;;;11.10;50.96;96404.03;5070947;28;20482;-50
2020/12/17 11:43:47;;;;;;;12.88;8.40;;;;;;;11.51;51.35;96399.09;5079134;28;20102;-48